createdAt,value
2018-12-24T00:01:19.944Z,1.78
2018-12-24T00:06:26.089Z,1.41
2018-12-24T00:11:32.277Z,1.67
2018-12-24T00:16:38.439Z,1.72
2018-12-24T00:21:44.750Z,1.97
2018-12-24T00:26:50.930Z,1.99
2018-12-24T00:31:57.104Z,1.94
2018-12-24T00:37:03.220Z,2.09
2018-12-24T00:42:15.808Z,2.21
2018-12-24T00:47:15.069Z,1.73
2018-12-24T00:52:21.199Z,1.39
2018-12-24T00:57:27.339Z,1.98
2018-12-24T01:02:33.480Z,1.82
2018-12-24T01:07:39.618Z,1.58
2018-12-24T01:12:45.834Z,1.39
2018-12-24T01:17:52.006Z,1.46
2018-12-24T01:22:58.169Z,1.68
2018-12-24T01:28:04.358Z,1.61
2018-12-24T01:33:10.560Z,1.57
2018-12-24T01:38:16.706Z,1.59
2018-12-24T01:43:22.843Z,1.48
2018-12-24T01:48:28.946Z,1.32
2018-12-24T01:53:35.230Z,1.29
2018-12-24T01:58:41.430Z,1.52
2018-12-24T02:03:47.619Z,1.81
2018-12-24T02:08:53.898Z,1.87
2018-12-24T02:14:00.105Z,1.63
2018-12-24T02:19:06.343Z,1.60
2018-12-24T02:24:12.581Z,1.42
2018-12-24T02:29:18.716Z,1.28
2018-12-24T02:34:24.830Z,1.52
2018-12-24T02:39:30.950Z,1.48
2018-12-24T02:44:37.166Z,1.54
2018-12-24T02:49:43.315Z,1.52
2018-12-24T02:54:49.415Z,1.45
2018-12-24T02:59:55.562Z,1.69
2018-12-24T03:05:01.802Z,1.58
2018-12-24T03:10:07.954Z,1.62
2018-12-24T03:15:14.106Z,1.36
2018-12-24T03:20:20.312Z,1.86
2018-12-24T03:25:26.598Z,1.97
2018-12-24T03:30:32.747Z,1.80
2018-12-24T03:35:38.905Z,1.65
2018-12-24T03:40:45.109Z,1.82
2018-12-24T03:45:51.228Z,1.54
2018-12-24T03:50:57.374Z,1.60
2018-12-24T03:56:03.534Z,1.67
2018-12-24T04:01:09.652Z,1.78
2018-12-24T04:06:15.827Z,1.61
2018-12-24T04:11:24.091Z,1.55
2018-12-24T04:16:27.826Z,2.26
2018-12-24T04:21:33.942Z,1.62
2018-12-24T04:26:40.071Z,1.82
2018-12-24T04:31:46.200Z,1.51
2018-12-24T04:36:52.359Z,1.39
2018-12-24T04:41:58.495Z,1.84
2018-12-24T04:47:04.654Z,2.08
2018-12-24T04:52:11.053Z,1.82
2018-12-24T04:57:17.200Z,1.73
2018-12-24T05:02:23.543Z,1.32
2018-12-24T05:07:29.722Z,1.41
2018-12-24T05:12:35.847Z,1.14
2018-12-24T05:17:42.120Z,1.05
2018-12-24T05:22:48.265Z,1.27
2018-12-24T05:27:54.429Z,1.17
2018-12-24T05:33:00.567Z,1.12
2018-12-24T05:38:06.748Z,1.33
2018-12-24T05:43:12.914Z,1.28
2018-12-24T05:48:19.050Z,1.43
2018-12-24T05:53:25.206Z,1.29
2018-12-24T05:58:31.409Z,1.53
2018-12-24T06:03:37.580Z,1.63
2018-12-24T06:08:43.789Z,1.43
2018-12-24T06:13:57.795Z,1.08
2018-12-24T06:18:55.652Z,0.93
2018-12-24T06:24:01.799Z,0.99
2018-12-24T06:29:07.974Z,1.05
2018-12-24T06:34:14.284Z,1.45
2018-12-24T06:39:20.588Z,1.17
2018-12-24T06:44:26.725Z,1.31
2018-12-24T06:49:32.928Z,1.48
2018-12-24T06:54:39.069Z,2.26
2018-12-24T06:59:45.206Z,1.95
2018-12-24T07:04:51.303Z,1.26
2018-12-24T07:09:57.462Z,1.16
2018-12-24T07:15:03.573Z,1.55
2018-12-24T07:20:09.704Z,1.44
2018-12-24T07:25:15.848Z,1.79
2018-12-24T07:30:22.023Z,2.24
2018-12-24T07:35:28.142Z,2.18
2018-12-24T07:40:34.265Z,1.91
2018-12-24T07:45:40.402Z,1.65
2018-12-24T07:50:46.703Z,1.74
2018-12-24T07:55:54.939Z,2.13
2018-12-24T08:01:01.100Z,1.73
2018-12-24T08:06:07.271Z,2.98
2018-12-24T08:11:13.556Z,1.94
2018-12-24T08:16:19.581Z,1.75
2018-12-24T08:21:25.774Z,2.00
2018-12-24T08:26:31.902Z,2.30
2018-12-24T08:31:38.137Z,2.14
2018-12-24T08:36:44.273Z,2.03
2018-12-24T08:41:50.442Z,1.98
2018-12-24T08:46:56.575Z,2.11
2018-12-24T08:52:02.782Z,2.04
2018-12-24T08:57:08.934Z,2.13
2018-12-24T09:02:15.090Z,1.93
2018-12-24T09:07:21.245Z,2.29
2018-12-24T09:12:27.515Z,2.13
2018-12-24T09:17:35.120Z,2.14
2018-12-24T09:22:39.427Z,1.96
2018-12-24T09:27:45.629Z,2.34
2018-12-24T09:32:51.891Z,2.99
2018-12-24T09:37:57.988Z,2.71
2018-12-24T09:43:04.126Z,2.74
2018-12-24T09:48:10.275Z,2.21
2018-12-24T09:53:19.493Z,2.95
2018-12-24T09:58:28.620Z,2.40
2018-12-24T10:03:37.909Z,2.55
2018-12-24T10:08:47.031Z,2.16
2018-12-24T10:13:56.340Z,2.39
2018-12-24T10:19:05.473Z,2.70
2018-12-24T10:24:14.668Z,2.71
2018-12-24T10:29:23.763Z,2.00
2018-12-24T10:34:32.906Z,2.06
2018-12-24T10:39:42.303Z,2.40
2018-12-24T10:44:51.547Z,2.45
2018-12-24T10:49:59.238Z,2.31
2018-12-24T10:55:08.482Z,2.42
2018-12-24T11:00:17.592Z,2.99
2018-12-24T11:05:26.827Z,1.80
2018-12-24T11:10:36.009Z,2.16
2018-12-24T11:15:45.153Z,2.04
2018-12-24T11:20:54.419Z,2.40
2018-12-24T11:26:03.669Z,1.98
2018-12-24T11:31:12.791Z,2.17
2018-12-24T11:36:22.037Z,2.52
2018-12-24T11:41:31.187Z,2.24
2018-12-24T11:46:40.474Z,2.64
2018-12-24T11:51:49.633Z,2.73
2018-12-24T11:56:58.823Z,2.05
2018-12-24T12:02:10.126Z,2.81
2018-12-24T12:07:16.678Z,2.46
2018-12-24T12:12:25.840Z,2.49
2018-12-24T12:17:33.587Z,2.70
2018-12-24T12:22:43.024Z,2.45
2018-12-24T12:27:52.213Z,2.02
2018-12-24T12:33:01.309Z,2.24
2018-12-24T12:38:10.479Z,1.72
2018-12-24T12:43:19.580Z,2.08
2018-12-24T12:48:28.853Z,2.22
2018-12-24T12:53:38.754Z,3.03
2018-12-24T12:58:47.944Z,2.23
2018-12-24T13:03:57.110Z,2.35
2018-12-24T13:09:06.272Z,2.85
2018-12-24T13:14:15.417Z,2.37
2018-12-24T13:19:24.579Z,2.88
2018-12-24T13:24:33.730Z,2.50
2018-12-24T13:29:42.975Z,2.83
2018-12-24T13:34:52.072Z,2.50
2018-12-24T13:39:59.926Z,2.26
2018-12-24T13:45:09.034Z,2.91
2018-12-24T13:50:19.466Z,3.27
2018-12-24T13:55:18.588Z,2.78
2018-12-24T14:00:27.799Z,2.38
2018-12-24T14:05:36.936Z,3.11
2018-12-24T14:10:46.154Z,2.36
2018-12-24T14:15:55.257Z,2.76
2018-12-24T14:21:04.441Z,3.82
2018-12-24T14:26:13.709Z,3.10
2018-12-24T14:31:22.814Z,2.66
2018-12-24T14:36:31.976Z,2.60
2018-12-24T14:41:41.220Z,2.29
2018-12-24T14:46:50.334Z,2.46
2018-12-24T14:51:59.535Z,2.25
2018-12-24T14:57:08.786Z,2.46
2018-12-24T15:02:17.975Z,2.24
2018-12-24T15:07:25.639Z,2.38
2018-12-24T15:12:34.857Z,2.79
2018-12-24T15:17:43.979Z,2.05
2018-12-24T15:22:53.148Z,3.09
2018-12-24T15:28:02.285Z,2.43
2018-12-24T15:33:11.499Z,2.54
2018-12-24T15:38:20.928Z,3.32
2018-12-24T15:43:30.226Z,3.51
2018-12-24T15:48:39.319Z,2.78
2018-12-24T15:53:48.656Z,2.76
2018-12-24T15:58:57.794Z,1.22
2018-12-24T16:04:07.034Z,3.96
2018-12-24T16:09:16.270Z,2.28
2018-12-24T16:14:25.537Z,2.75
2018-12-24T16:19:34.652Z,3.91
2018-12-24T16:24:43.813Z,2.49
2018-12-24T16:29:52.931Z,3.23
2018-12-24T16:35:02.154Z,2.71
2018-12-24T16:40:11.265Z,2.45
2018-12-24T16:45:20.480Z,2.77
2018-12-24T16:50:30.664Z,3.30
2018-12-24T16:55:29.802Z,3.31
2018-12-24T17:00:38.930Z,3.56
2018-12-24T17:05:48.186Z,3.99
2018-12-24T17:10:57.369Z,3.75
2018-12-24T17:16:06.553Z,3.43
2018-12-24T17:21:15.685Z,2.84
2018-12-24T17:26:24.881Z,3.83
2018-12-24T17:31:34.005Z,3.99
2018-12-24T17:36:43.317Z,4.80
2018-12-24T17:41:52.413Z,4.15
2018-12-24T17:47:01.714Z,4.77
2018-12-24T17:52:10.822Z,5.00
2018-12-24T17:57:20.012Z,4.33
2018-12-24T18:02:29.154Z,4.34
2018-12-24T18:07:38.510Z,4.60
2018-12-24T18:12:47.633Z,5.00
2018-12-24T18:17:56.905Z,4.62
2018-12-24T18:23:06.049Z,5.69
2018-12-24T18:28:15.236Z,4.43
2018-12-24T18:33:24.382Z,4.64
2018-12-24T18:38:33.612Z,5.29
2018-12-24T18:43:42.746Z,4.38
2018-12-24T18:48:51.940Z,4.58
2018-12-24T18:54:01.071Z,4.75
2018-12-24T18:59:10.368Z,5.13
2018-12-24T19:04:19.505Z,4.02
2018-12-24T19:09:28.750Z,3.97
2018-12-24T19:14:37.881Z,3.52
2018-12-24T19:19:47.047Z,3.27
2018-12-24T19:24:56.134Z,2.71
2018-12-24T19:30:05.309Z,2.71
2018-12-24T19:35:14.452Z,2.76
2018-12-24T19:40:23.739Z,2.33
2018-12-24T19:45:32.877Z,3.07
2018-12-24T19:50:42.146Z,2.35
2018-12-24T19:55:51.258Z,1.61
2018-12-24T20:01:00.472Z,1.51
2018-12-24T20:06:09.712Z,1.54
2018-12-24T20:11:18.994Z,1.77
2018-12-24T20:16:28.123Z,2.17
2018-12-24T20:21:37.318Z,2.17
2018-12-24T20:26:46.505Z,2.55
2018-12-24T20:31:55.686Z,2.59
2018-12-24T20:37:04.778Z,4.48
2018-12-24T20:42:13.924Z,2.97
2018-12-24T20:47:23.041Z,2.70
2018-12-24T20:52:32.206Z,1.70
2018-12-24T20:57:41.357Z,1.70
2018-12-24T21:02:50.630Z,2.08
2018-12-24T21:07:59.766Z,1.86
2018-12-24T21:13:09.028Z,2.24
2018-12-24T21:18:18.165Z,1.41
2018-12-24T21:23:27.402Z,1.48
2018-12-24T21:28:36.515Z,1.87
2018-12-24T21:33:45.712Z,2.00
2018-12-24T21:38:54.826Z,1.79
2018-12-24T21:44:03.978Z,1.83
2018-12-24T21:49:13.140Z,1.72
2018-12-24T21:54:22.277Z,1.17
2018-12-24T21:59:31.433Z,1.43
2018-12-24T22:04:40.759Z,1.22
2018-12-24T22:09:49.868Z,1.46
2018-12-24T22:14:59.148Z,1.84
2018-12-24T22:20:08.265Z,1.34
2018-12-24T22:25:17.509Z,1.63
2018-12-24T22:30:26.622Z,1.24
2018-12-24T22:35:35.883Z,1.05
2018-12-24T22:40:44.993Z,1.02
2018-12-24T22:45:54.159Z,1.36
2018-12-24T22:51:03.292Z,1.43
2018-12-24T22:56:12.442Z,1.28
2018-12-24T23:01:21.574Z,0.99
2018-12-24T23:06:30.740Z,1.65
2018-12-24T23:11:39.851Z,1.18
2018-12-24T23:16:49.140Z,1.05
2018-12-24T23:21:58.242Z,1.84
2018-12-24T23:27:07.465Z,2.35
2018-12-24T23:32:16.651Z,1.72
2018-12-24T23:37:25.780Z,2.16
2018-12-24T23:42:34.896Z,1.49
2018-12-24T23:47:44.029Z,1.38
2018-12-24T23:52:53.113Z,1.32
2018-12-24T23:58:02.444Z,1.15
